sensor_id;sensor_type;location;lat;lon;timestamp;pressure;altitude;pressure_sealevel;temperature;humidity
36828;BME280;22766;48.042;11.192;2022-07-09T00:01:00;96205.03;;;9.73;100.00
36828;BME280;22766;48.042;11.192;2022-07-09T00:03:27;96214.44;;;9.63;100.00
36828;BME280;22766;48.042;11.192;2022-07-09T00:05:54;96201.88;;;9.58;100.00
36828;BME280;22766;48.042;11.192;2022-07-09T00:08:21;96207.97;;;9.57;100.00
36828;BME280;22766;48.042;11.192;2022-07-09T00:10:47;96201.75;;;9.60;100.00
36828;BME280;22766;48.042;11.192;2022-07-09T00:13:14;96199.28;;;9.58;100.00
36828;BME280;22766;48.042;11.192;2022-07-09T00:15:41;96200.13;;;9.59;100.00
36828;BME280;22766;48.042;11.192;2022-07-09T00:18:07;96195.31;;;9.54;100.00
36828;BME280;22766;48.042;11.192;2022-07-09T00:20:34;96201.88;;;9.47;100.00
36828;BME280;22766;48.042;11.192;2022-07-09T00:23:01;96194.03;;;9.49;100.00
36828;BME280;22766;48.042;11.192;2022-07-09T00:25:27;96192.03;;;9.52;100.00
36828;BME280;22766;48.042;11.192;2022-07-09T00:27:54;96193.44;;;9.56;100.00
36828;BME280;22766;48.042;11.192;2022-07-09T00:30:20;96183.94;;;9.57;100.00
36828;BME280;22766;48.042;11.192;2022-07-09T00:32:47;96180.34;;;9.59;100.00
36828;BME280;22766;48.042;11.192;2022-07-09T00:35:14;96179.63;;;9.57;100.00
36828;BME280;22766;48.042;11.192;2022-07-09T00:37:40;96180.09;;;9.51;100.00
36828;BME280;22766;48.042;11.192;2022-07-09T00:40:07;96172.34;;;9.40;100.00
36828;BME280;22766;48.042;11.192;2022-07-09T00:42:34;96173.28;;;9.39;100.00
36828;BME280;22766;48.042;11.192;2022-07-09T00:45:00;96174.31;;;9.36;100.00
36828;BME280;22766;48.042;11.192;2022-07-09T00:47:27;96175.28;;;9.35;100.00
36828;BME280;22766;48.042;11.192;2022-07-09T00:49:54;96170.34;;;9.32;100.00
36828;BME280;22766;48.042;11.192;2022-07-09T00:52:21;96164.97;;;9.35;100.00
36828;BME280;22766;48.042;11.192;2022-07-09T00:54:48;96169.88;;;9.38;100.00
36828;BME280;22766;48.042;11.192;2022-07-09T00:57:16;96170.22;;;9.34;100.00
36828;BME280;22766;48.042;11.192;2022-07-09T00:59:43;96170.34;;;9.32;100.00
36828;BME280;22766;48.042;11.192;2022-07-09T01:02:10;96172.09;;;9.21;100.00
36828;BME280;22766;48.042;11.192;2022-07-09T01:04:37;96168.44;;;9.23;100.00
36828;BME280;22766;48.042;11.192;2022-07-09T01:07:05;96171.16;;;9.22;100.00
36828;BME280;22766;48.042;11.192;2022-07-09T01:09:32;96171.41;;;9.19;100.00
36828;BME280;22766;48.042;11.192;2022-07-09T01:11:59;96168.94;;;9.17;100.00
36828;BME280;22766;48.042;11.192;2022-07-09T01:14:27;96167.41;;;9.15;100.00
36828;BME280;22766;48.042;11.192;2022-07-09T01:17:01;96161.66;;;9.11;100.00
36828;BME280;22766;48.042;11.192;2022-07-09T01:19:29;96157.28;;;9.01;100.00
36828;BME280;22766;48.042;11.192;2022-07-09T01:21:57;96158.69;;;8.94;100.00
36828;BME280;22766;48.042;11.192;2022-07-09T01:24:31;96159.88;;;9.01;100.00
36828;BME280;22766;48.042;11.192;2022-07-09T01:26:57;96151.25;;;9.13;100.00
36828;BME280;22766;48.042;11.192;2022-07-09T01:29:24;96150.91;;;9.17;100.00
36828;BME280;22766;48.042;11.192;2022-07-09T01:31:51;96152.78;;;9.15;100.00
36828;BME280;22766;48.042;11.192;2022-07-09T01:34:17;96147.38;;;9.07;100.00
36828;BME280;22766;48.042;11.192;2022-07-09T01:36:44;96152.53;;;9.07;100.00
36828;BME280;22766;48.042;11.192;2022-07-09T01:39:11;96154.50;;;9.04;100.00
36828;BME280;22766;48.042;11.192;2022-07-09T01:41:38;96149.13;;;9.07;100.00
36828;BME280;22766;48.042;11.192;2022-07-09T01:44:04;96145.38;;;9.11;100.00
36828;BME280;22766;48.042;11.192;2022-07-09T01:46:33;96143.25;;;9.16;100.00
36828;BME280;22766;48.042;11.192;2022-07-09T01:49:00;96138.13;;;9.16;100.00
36828;BME280;22766;48.042;11.192;2022-07-09T01:51:26;96135.53;;;9.16;100.00
36828;BME280;22766;48.042;11.192;2022-07-09T01:53:53;96134.38;;;9.09;100.00
36828;BME280;22766;48.042;11.192;2022-07-09T01:56:20;96135.91;;;9.00;100.00
36828;BME280;22766;48.042;11.192;2022-07-09T01:58:46;96134.56;;;8.95;100.00
36828;BME280;22766;48.042;11.192;2022-07-09T02:01:13;96127.09;;;8.92;100.00
36828;BME280;22766;48.042;11.192;2022-07-09T02:03:39;96128.25;;;8.88;100.00
36828;BME280;22766;48.042;11.192;2022-07-09T02:06:06;96128.59;;;8.83;100.00
36828;BME280;22766;48.042;11.192;2022-07-09T02:08:33;96124.84;;;8.87;100.00
36828;BME280;22766;48.042;11.192;2022-07-09T02:11:00;96122.88;;;8.91;100.00
36828;BME280;22766;48.042;11.192;2022-07-09T02:13:26;96125.09;;;8.95;100.00
36828;BME280;22766;48.042;11.192;2022-07-09T02:15:53;96115.28;;;9.00;100.00
36828;BME280;22766;48.042;11.192;2022-07-09T02:18:20;96119.50;;;9.01;100.00
36828;BME280;22766;48.042;11.192;2022-07-09T02:20:47;96121.13;;;9.02;100.00
36828;BME280;22766;48.042;11.192;2022-07-09T02:23:14;96115.75;;;9.05;100.00
36828;BME280;22766;48.042;11.192;2022-07-09T02:25:40;96118.09;;;9.08;100.00
36828;BME280;22766;48.042;11.192;2022-07-09T02:28:07;96120.19;;;9.14;100.00
36828;BME280;22766;48.042;11.192;2022-07-09T02:30:34;96110.97;;;9.23;100.00
36828;BME280;22766;48.042;11.192;2022-07-09T02:33:04;96110.59;;;9.27;100.00
36828;BME280;22766;48.042;11.192;2022-07-09T02:35:30;96109.22;;;9.34;100.00
36828;BME280;22766;48.042;11.192;2022-07-09T02:37:57;96105.22;;;9.41;100.00
36828;BME280;22766;48.042;11.192;2022-07-09T02:40:24;96098.50;;;9.50;100.00
36828;BME280;22766;48.042;11.192;2022-07-09T02:42:50;96097.91;;;9.58;100.00
36828;BME280;22766;48.042;11.192;2022-07-09T02:45:17;96100.72;;;9.66;100.00
36828;BME280;22766;48.042;11.192;2022-07-09T02:47:44;96098.38;;;9.74;100.00
36828;BME280;22766;48.042;11.192;2022-07-09T02:50:11;96097.91;;;9.80;100.00
36828;BME280;22766;48.042;11.192;2022-07-09T02:52:38;96090.34;;;9.88;100.00
36828;BME280;22766;48.042;11.192;2022-07-09T02:55:04;96085.09;;;9.89;100.00
36828;BME280;22766;48.042;11.192;2022-07-09T02:57:31;96081.44;;;9.92;100.00
36828;BME280;22766;48.042;11.192;2022-07-09T02:59:58;96084.25;;;10.00;100.00
36828;BME280;22766;48.042;11.192;2022-07-09T03:02:25;96077.75;;;10.05;100.00
36828;BME280;22766;48.042;11.192;2022-07-09T03:04:52;96084.91;;;10.13;100.00
36828;BME280;22766;48.042;11.192;2022-07-09T03:07:19;96089.25;;;10.23;100.00
36828;BME280;22766;48.042;11.192;2022-07-09T03:09:45;96078.16;;;10.32;100.00
36828;BME280;22766;48.042;11.192;2022-07-09T03:12:12;96078.38;;;10.41;100.00
36828;BME280;22766;48.042;11.192;2022-07-09T03:14:39;96082.91;;;10.48;100.00
36828;BME280;22766;48.042;11.192;2022-07-09T03:17:05;96079.63;;;10.46;100.00
36828;BME280;22766;48.042;11.192;2022-07-09T03:19:32;96081.50;;;10.44;100.00
36828;BME280;22766;48.042;11.192;2022-07-09T03:21:58;96074.19;;;10.49;100.00
36828;BME280;22766;48.042;11.192;2022-07-09T03:24:25;96075.41;;;10.45;100.00
36828;BME280;22766;48.042;11.192;2022-07-09T03:26:52;96073.06;;;10.42;100.00
36828;BME280;22766;48.042;11.192;2022-07-09T03:29:18;96085.16;;;10.42;100.00
36828;BME280;22766;48.042;11.192;2022-07-09T03:31:45;96088.31;;;10.45;100.00
36828;BME280;22766;48.042;11.192;2022-07-09T03:34:12;96087.94;;;10.50;100.00
36828;BME280;22766;48.042;11.192;2022-07-09T03:36:39;96092.16;;;10.51;100.00
36828;BME280;22766;48.042;11.192;2022-07-09T03:39:05;96093.38;;;10.47;100.00
36828;BME280;22766;48.042;11.192;2022-07-09T03:41:32;96099.25;;;10.38;100.00
36828;BME280;22766;48.042;11.192;2022-07-09T03:43:59;96100.56;;;10.32;100.00
36828;BME280;22766;48.042;11.192;2022-07-09T03:46:26;96101.03;;;10.37;100.00
36828;BME280;22766;48.042;11.192;2022-07-09T03:48:53;96097.63;;;10.37;100.00
36828;BME280;22766;48.042;11.192;2022-07-09T03:51:19;96095.34;;;10.43;100.00
36828;BME280;22766;48.042;11.192;2022-07-09T03:53:46;96097.84;;;10.45;100.00
36828;BME280;22766;48.042;11.192;2022-07-09T03:56:12;96100.91;;;10.59;100.00
36828;BME280;22766;48.042;11.192;2022-07-09T03:58:39;96101.13;;;10.67;100.00
36828;BME280;22766;48.042;11.192;2022-07-09T04:01:06;96102.94;;;10.76;100.00
36828;BME280;22766;48.042;11.192;2022-07-09T04:03:33;96111.56;;;10.86;100.00
36828;BME280;22766;48.042;11.192;2022-07-09T04:05:59;96109.06;;;10.96;100.00
36828;BME280;22766;48.042;11.192;2022-07-09T04:08:26;96103.34;;;11.02;100.00
36828;BME280;22766;48.042;11.192;2022-07-09T04:10:53;96109.91;;;11.06;100.00
36828;BME280;22766;48.042;11.192;2022-07-09T04:13:19;96115.38;;;11.12;100.00
36828;BME280;22766;48.042;11.192;2022-07-09T04:15:46;96108.56;;;11.11;100.00
36828;BME280;22766;48.042;11.192;2022-07-09T04:18:16;96114.28;;;11.05;100.00
36828;BME280;22766;48.042;11.192;2022-07-09T04:20:42;96108.31;;;11.14;100.00
36828;BME280;22766;48.042;11.192;2022-07-09T04:23:09;96112.72;;;11.23;100.00
36828;BME280;22766;48.042;11.192;2022-07-09T04:25:36;96115.16;;;11.25;100.00
36828;BME280;22766;48.042;11.192;2022-07-09T04:28:03;96104.44;;;11.29;100.00
36828;BME280;22766;48.042;11.192;2022-07-09T04:30:31;96114.84;;;11.39;100.00
36828;BME280;22766;48.042;11.192;2022-07-09T04:32:58;96119.53;;;11.55;100.00
36828;BME280;22766;48.042;11.192;2022-07-09T04:35:27;96113.31;;;11.67;100.00
36828;BME280;22766;48.042;11.192;2022-07-09T04:37:53;96114.72;;;11.80;100.00
36828;BME280;22766;48.042;11.192;2022-07-09T04:40:20;96117.63;;;11.96;100.00
36828;BME280;22766;48.042;11.192;2022-07-09T04:42:47;96108.66;;;12.10;100.00
36828;BME280;22766;48.042;11.192;2022-07-09T04:45:13;96111.81;;;12.23;100.00
36828;BME280;22766;48.042;11.192;2022-07-09T04:47:42;96108.28;;;12.34;100.00
36828;BME280;22766;48.042;11.192;2022-07-09T04:50:09;96108.13;;;12.45;100.00
36828;BME280;22766;48.042;11.192;2022-07-09T04:52:38;96110.56;;;12.56;100.00
36828;BME280;22766;48.042;11.192;2022-07-09T04:55:05;96107.88;;;12.67;100.00
36828;BME280;22766;48.042;11.192;2022-07-09T04:57:32;96108.78;;;12.75;100.00
36828;BME280;22766;48.042;11.192;2022-07-09T04:59:59;96113.81;;;12.86;100.00
36828;BME280;22766;48.042;11.192;2022-07-09T05:02:26;96109.06;;;12.91;100.00
36828;BME280;22766;48.042;11.192;2022-07-09T05:04:53;96110.66;;;13.02;100.00
36828;BME280;22766;48.042;11.192;2022-07-09T05:07:20;96109.31;;;13.07;100.00
36828;BME280;22766;48.042;11.192;2022-07-09T05:09:46;96115.03;;;13.11;100.00
36828;BME280;22766;48.042;11.192;2022-07-09T05:12:13;96109.44;;;13.16;100.00
36828;BME280;22766;48.042;11.192;2022-07-09T05:14:39;96116.81;;;13.20;100.00
36828;BME280;22766;48.042;11.192;2022-07-09T05:17:06;96108.88;;;13.22;100.00
36828;BME280;22766;48.042;11.192;2022-07-09T05:19:33;96114.75;;;13.24;100.00
36828;BME280;22766;48.042;11.192;2022-07-09T05:22:00;96117.34;;;13.24;100.00
36828;BME280;22766;48.042;11.192;2022-07-09T05:24:27;96116.09;;;13.28;100.00
36828;BME280;22766;48.042;11.192;2022-07-09T05:26:54;96107.06;;;13.32;100.00
36828;BME280;22766;48.042;11.192;2022-07-09T05:29:21;96111.13;;;13.44;100.00
36828;BME280;22766;48.042;11.192;2022-07-09T05:31:49;96112.84;;;13.53;100.00
36828;BME280;22766;48.042;11.192;2022-07-09T05:34:16;96114.63;;;13.79;100.00
36828;BME280;22766;48.042;11.192;2022-07-09T05:36:43;96119.03;;;13.79;100.00
36828;BME280;22766;48.042;11.192;2022-07-09T05:39:09;96124.28;;;13.87;100.00
36828;BME280;22766;48.042;11.192;2022-07-09T05:41:36;96115.78;;;13.94;100.00
36828;BME280;22766;48.042;11.192;2022-07-09T05:44:03;96119.00;;;14.06;100.00
36828;BME280;22766;48.042;11.192;2022-07-09T05:46:30;96117.47;;;14.13;100.00
36828;BME280;22766;48.042;11.192;2022-07-09T05:48:57;96119.81;;;14.34;100.00
36828;BME280;22766;48.042;11.192;2022-07-09T05:51:23;96123.22;;;14.34;100.00
36828;BME280;22766;48.042;11.192;2022-07-09T05:53:50;96126.16;;;14.22;100.00
36828;BME280;22766;48.042;11.192;2022-07-09T05:56:17;96129.81;;;14.29;100.00
36828;BME280;22766;48.042;11.192;2022-07-09T05:58:43;96130.72;;;14.10;100.00
36828;BME280;22766;48.042;11.192;2022-07-09T06:01:10;96123.69;;;14.20;100.00
36828;BME280;22766;48.042;11.192;2022-07-09T06:03:39;96117.25;;;14.24;100.00
36828;BME280;22766;48.042;11.192;2022-07-09T06:06:06;96125.06;;;14.42;100.00
36828;BME280;22766;48.042;11.192;2022-07-09T06:08:33;96125.59;;;14.28;100.00
36828;BME280;22766;48.042;11.192;2022-07-09T06:11:00;96127.09;;;14.03;100.00
36828;BME280;22766;48.042;11.192;2022-07-09T06:13:27;96127.03;;;14.13;100.00
36828;BME280;22766;48.042;11.192;2022-07-09T06:15:54;96127.31;;;14.54;100.00
36828;BME280;22766;48.042;11.192;2022-07-09T06:18:21;96130.19;;;14.51;100.00
36828;BME280;22766;48.042;11.192;2022-07-09T06:20:49;96131.41;;;14.39;100.00
36828;BME280;22766;48.042;11.192;2022-07-09T06:23:15;96134.16;;;14.38;100.00
36828;BME280;22766;48.042;11.192;2022-07-09T06:25:42;96130.25;;;14.42;100.00
36828;BME280;22766;48.042;11.192;2022-07-09T06:28:09;96126.81;;;14.51;100.00
36828;BME280;22766;48.042;11.192;2022-07-09T06:30:35;96130.28;;;14.59;100.00
36828;BME280;22766;48.042;11.192;2022-07-09T06:33:02;96130.19;;;14.69;100.00
36828;BME280;22766;48.042;11.192;2022-07-09T06:35:29;96127.44;;;14.70;100.00
36828;BME280;22766;48.042;11.192;2022-07-09T06:37:57;96122.91;;;14.72;100.00
36828;BME280;22766;48.042;11.192;2022-07-09T06:40:24;96125.75;;;14.79;100.00
36828;BME280;22766;48.042;11.192;2022-07-09T06:42:51;96126.16;;;14.92;100.00
36828;BME280;22766;48.042;11.192;2022-07-09T06:45:21;96124.91;;;14.96;100.00
36828;BME280;22766;48.042;11.192;2022-07-09T06:47:48;96126.66;;;14.95;100.00
36828;BME280;22766;48.042;11.192;2022-07-09T06:50:15;96125.47;;;15.08;100.00
36828;BME280;22766;48.042;11.192;2022-07-09T06:52:41;96125.66;;;15.14;100.00
36828;BME280;22766;48.042;11.192;2022-07-09T06:55:08;96122.50;;;15.28;100.00
36828;BME280;22766;48.042;11.192;2022-07-09T06:57:35;96121.66;;;15.45;100.00
36828;BME280;22766;48.042;11.192;2022-07-09T07:00:04;96129.97;;;15.49;100.00
36828;BME280;22766;48.042;11.192;2022-07-09T07:02:31;96123.25;;;15.72;100.00
36828;BME280;22766;48.042;11.192;2022-07-09T07:04:58;96122.84;;;15.93;100.00
36828;BME280;22766;48.042;11.192;2022-07-09T07:07:25;96127.47;;;16.07;100.00
36828;BME280;22766;48.042;11.192;2022-07-09T07:09:51;96126.84;;;16.21;100.00
36828;BME280;22766;48.042;11.192;2022-07-09T07:12:18;96123.28;;;16.22;100.00
36828;BME280;22766;48.042;11.192;2022-07-09T07:14:44;96117.66;;;16.50;100.00
36828;BME280;22766;48.042;11.192;2022-07-09T07:17:11;96119.00;;;16.87;97.86
36828;BME280;22766;48.042;11.192;2022-07-09T07:19:38;96115.88;;;17.15;100.00
36828;BME280;22766;48.042;11.192;2022-07-09T07:22:05;96119.91;;;17.34;94.26
36828;BME280;22766;48.042;11.192;2022-07-09T07:24:32;96114.38;;;17.29;90.61
36828;BME280;22766;48.042;11.192;2022-07-09T07:26:59;96112.13;;;17.81;91.85
36828;BME280;22766;48.042;11.192;2022-07-09T07:29:25;96115.81;;;18.02;88.71
36828;BME280;22766;48.042;11.192;2022-07-09T07:31:53;96110.63;;;17.86;93.29
36828;BME280;22766;48.042;11.192;2022-07-09T07:34:20;96100.59;;;18.06;94.61
36828;BME280;22766;48.042;11.192;2022-07-09T07:36:49;96106.88;;;18.27;86.77
36828;BME280;22766;48.042;11.192;2022-07-09T07:39:17;96096.66;;;18.40;88.17
36828;BME280;22766;48.042;11.192;2022-07-09T07:41:44;96102.88;;;18.62;82.39
36828;BME280;22766;48.042;11.192;2022-07-09T07:44:11;96099.75;;;19.04;85.43
36828;BME280;22766;48.042;11.192;2022-07-09T07:46:37;96098.50;;;19.00;81.08
36828;BME280;22766;48.042;11.192;2022-07-09T07:49:04;96100.00;;;18.94;77.39
36828;BME280;22766;48.042;11.192;2022-07-09T07:51:31;96095.03;;;18.85;77.84
36828;BME280;22766;48.042;11.192;2022-07-09T07:53:58;96098.47;;;18.62;79.79
36828;BME280;22766;48.042;11.192;2022-07-09T07:56:25;96099.34;;;18.78;82.19
36828;BME280;22766;48.042;11.192;2022-07-09T07:58:52;96098.47;;;18.32;77.28
36828;BME280;22766;48.042;11.192;2022-07-09T08:01:18;96094.53;;;18.67;73.63
36828;BME280;22766;48.042;11.192;2022-07-09T08:03:45;96097.25;;;18.73;77.83
36828;BME280;22766;48.042;11.192;2022-07-09T08:06:12;96101.06;;;18.85;74.00
36828;BME280;22766;48.042;11.192;2022-07-09T08:08:38;96097.19;;;18.81;71.14
36828;BME280;22766;48.042;11.192;2022-07-09T08:11:05;96095.25;;;18.75;77.12
36828;BME280;22766;48.042;11.192;2022-07-09T08:13:32;96096.34;;;18.81;76.06
36828;BME280;22766;48.042;11.192;2022-07-09T08:15:58;96101.75;;;19.02;74.45
36828;BME280;22766;48.042;11.192;2022-07-09T08:18:28;96091.19;;;19.32;75.07
36828;BME280;22766;48.042;11.192;2022-07-09T08:20:55;96093.28;;;19.51;69.01
36828;BME280;22766;48.042;11.192;2022-07-09T08:23:22;96101.41;;;19.71;67.66
36828;BME280;22766;48.042;11.192;2022-07-09T08:25:48;96097.94;;;19.85;69.45
36828;BME280;22766;48.042;11.192;2022-07-09T08:28:16;96095.34;;;20.00;64.92
36828;BME280;22766;48.042;11.192;2022-07-09T08:30:43;96088.53;;;20.05;68.13
36828;BME280;22766;48.042;11.192;2022-07-09T08:33:10;96090.13;;;20.35;67.15
36828;BME280;22766;48.042;11.192;2022-07-09T08:35:39;96085.41;;;20.31;59.73
36828;BME280;22766;48.042;11.192;2022-07-09T08:38:06;96081.75;;;20.89;60.26
36828;BME280;22766;48.042;11.192;2022-07-09T08:40:33;96082.91;;;21.28;60.75
36828;BME280;22766;48.042;11.192;2022-07-09T08:43:02;96084.56;;;21.36;62.68
36828;BME280;22766;48.042;11.192;2022-07-09T08:45:29;96075.44;;;21.32;62.80
36828;BME280;22766;48.042;11.192;2022-07-09T08:47:58;96083.31;;;21.60;55.10
36828;BME280;22766;48.042;11.192;2022-07-09T08:50:26;96076.63;;;21.91;52.75
36828;BME280;22766;48.042;11.192;2022-07-09T08:52:54;96083.06;;;21.89;55.39
36828;BME280;22766;48.042;11.192;2022-07-09T08:55:21;96066.56;;;22.01;55.35
36828;BME280;22766;48.042;11.192;2022-07-09T08:57:48;96065.28;;;22.45;53.45
36828;BME280;22766;48.042;11.192;2022-07-09T09:00:14;96062.56;;;22.18;50.89
36828;BME280;22766;48.042;11.192;2022-07-09T09:02:41;96056.41;;;21.58;49.89
36828;BME280;22766;48.042;11.192;2022-07-09T09:05:15;96058.84;;;21.93;51.47
36828;BME280;22766;48.042;11.192;2022-07-09T09:07:42;96054.31;;;21.81;49.48
36828;BME280;22766;48.042;11.192;2022-07-09T09:10:23;96055.88;;;21.75;47.00
36828;BME280;22766;48.042;11.192;2022-07-09T09:12:59;96058.25;;;21.64;48.41
36828;BME280;22766;48.042;11.192;2022-07-09T09:15:27;96052.06;;;21.44;46.90
36828;BME280;22766;48.042;11.192;2022-07-09T09:17:54;96053.53;;;21.18;47.19
36828;BME280;22766;48.042;11.192;2022-07-09T09:20:21;96044.59;;;21.13;48.85
36828;BME280;22766;48.042;11.192;2022-07-09T09:22:52;96049.19;;;21.04;51.79
36828;BME280;22766;48.042;11.192;2022-07-09T09:25:21;96041.34;;;21.38;50.40
36828;BME280;22766;48.042;11.192;2022-07-09T09:27:58;96040.91;;;21.69;48.65
36828;BME280;22766;48.042;11.192;2022-07-09T09:30:27;96034.22;;;21.73;47.21
36828;BME280;22766;48.042;11.192;2022-07-09T09:32:57;96031.81;;;21.72;46.28
36828;BME280;22766;48.042;11.192;2022-07-09T09:35:27;96031.84;;;21.78;46.07
36828;BME280;22766;48.042;11.192;2022-07-09T09:37:54;96027.91;;;22.02;48.05
36828;BME280;22766;48.042;11.192;2022-07-09T09:40:22;96029.78;;;21.67;44.12
36828;BME280;22766;48.042;11.192;2022-07-09T09:42:49;96024.75;;;21.38;43.86
36828;BME280;22766;48.042;11.192;2022-07-09T09:45:22;96028.97;;;21.32;46.50
36828;BME280;22766;48.042;11.192;2022-07-09T09:47:50;96022.38;;;21.84;43.82
36828;BME280;22766;48.042;11.192;2022-07-09T09:50:22;96026.19;;;22.42;44.31
36828;BME280;22766;48.042;11.192;2022-07-09T09:52:53;96015.31;;;23.03;44.45
36828;BME280;22766;48.042;11.192;2022-07-09T09:55:22;96021.38;;;23.17;38.62
36828;BME280;22766;48.042;11.192;2022-07-09T09:57:49;96019.56;;;22.98;40.57
36828;BME280;22766;48.042;11.192;2022-07-09T10:00:18;96019.78;;;22.96;40.15
36828;BME280;22766;48.042;11.192;2022-07-09T10:02:47;96019.38;;;22.60;39.90
36828;BME280;22766;48.042;11.192;2022-07-09T10:05:14;96023.75;;;22.34;40.73
36828;BME280;22766;48.042;11.192;2022-07-09T10:07:41;96014.81;;;22.21;42.38
36828;BME280;22766;48.042;11.192;2022-07-09T10:10:19;96015.66;;;22.42;41.29
36828;BME280;22766;48.042;11.192;2022-07-09T10:12:46;96021.31;;;22.25;47.24
36828;BME280;22766;48.042;11.192;2022-07-09T10:15:24;96014.34;;;21.98;48.23
36828;BME280;22766;48.042;11.192;2022-07-09T10:17:54;96012.63;;;22.32;43.76
36828;BME280;22766;48.042;11.192;2022-07-09T10:20:33;96019.38;;;22.73;45.06
36828;BME280;22766;48.042;11.192;2022-07-09T10:23:01;96015.69;;;22.55;46.74
36828;BME280;22766;48.042;11.192;2022-07-09T10:25:30;96012.63;;;22.38;46.70
36828;BME280;22766;48.042;11.192;2022-07-09T10:27:57;96010.41;;;22.35;46.44
36828;BME280;22766;48.042;11.192;2022-07-09T10:30:31;96020.38;;;22.66;45.22
36828;BME280;22766;48.042;11.192;2022-07-09T10:33:08;96015.69;;;23.00;41.73
36828;BME280;22766;48.042;11.192;2022-07-09T10:35:42;96013.69;;;23.15;39.77
36828;BME280;22766;48.042;11.192;2022-07-09T10:38:11;96012.44;;;23.25;42.21
36828;BME280;22766;48.042;11.192;2022-07-09T10:40:46;96006.78;;;23.08;39.94
36828;BME280;22766;48.042;11.192;2022-07-09T10:43:14;96003.94;;;23.16;39.55
36828;BME280;22766;48.042;11.192;2022-07-09T10:45:42;96006.19;;;22.93;41.83
36828;BME280;22766;48.042;11.192;2022-07-09T10:48:13;96005.81;;;22.83;42.80
36828;BME280;22766;48.042;11.192;2022-07-09T10:50:45;96010.03;;;23.23;44.51
36828;BME280;22766;48.042;11.192;2022-07-09T10:53:14;96002.88;;;24.07;45.90
36828;BME280;22766;48.042;11.192;2022-07-09T10:55:42;96002.91;;;24.38;42.87
36828;BME280;22766;48.042;11.192;2022-07-09T10:58:22;96007.13;;;24.46;43.21
36828;BME280;22766;48.042;11.192;2022-07-09T11:00:58;95999.00;;;23.52;41.05
36828;BME280;22766;48.042;11.192;2022-07-09T11:03:27;95993.72;;;23.59;44.18
36828;BME280;22766;48.042;11.192;2022-07-09T11:05:54;95996.22;;;23.41;43.14
36828;BME280;22766;48.042;11.192;2022-07-09T11:08:21;95995.81;;;23.44;44.19
36828;BME280;22766;48.042;11.192;2022-07-09T11:10:48;95993.16;;;23.94;43.14
36828;BME280;22766;48.042;11.192;2022-07-09T11:13:17;95991.09;;;23.52;38.65
36828;BME280;22766;48.042;11.192;2022-07-09T11:15:43;95985.50;;;23.03;41.99
36828;BME280;22766;48.042;11.192;2022-07-09T11:18:12;95988.38;;;22.69;44.68
36828;BME280;22766;48.042;11.192;2022-07-09T11:23:08;95979.78;;;23.26;40.99
36828;BME280;22766;48.042;11.192;2022-07-09T11:25:35;95970.06;;;23.39;41.21
36828;BME280;22766;48.042;11.192;2022-07-09T11:28:02;95973.47;;;23.53;40.29
36828;BME280;22766;48.042;11.192;2022-07-09T11:30:30;95970.75;;;23.72;40.43
36828;BME280;22766;48.042;11.192;2022-07-09T11:32:59;95969.88;;;24.29;44.29
36828;BME280;22766;48.042;11.192;2022-07-09T11:35:28;95967.69;;;24.20;40.01
36828;BME280;22766;48.042;11.192;2022-07-09T11:37:56;95972.63;;;24.09;40.38
36828;BME280;22766;48.042;11.192;2022-07-09T11:40:23;95964.47;;;24.18;38.92
36828;BME280;22766;48.042;11.192;2022-07-09T11:42:51;95961.91;;;24.60;36.72
36828;BME280;22766;48.042;11.192;2022-07-09T11:45:28;95954.19;;;23.96;37.51
36828;BME280;22766;48.042;11.192;2022-07-09T11:48:07;95962.66;;;24.12;38.92
36828;BME280;22766;48.042;11.192;2022-07-09T11:50:42;95960.09;;;24.30;38.80
36828;BME280;22766;48.042;11.192;2022-07-09T11:53:22;95960.66;;;24.38;41.98
36828;BME280;22766;48.042;11.192;2022-07-09T11:56:02;95954.16;;;24.09;38.24
36828;BME280;22766;48.042;11.192;2022-07-09T11:58:33;95953.84;;;23.86;41.13
36828;BME280;22766;48.042;11.192;2022-07-09T12:01:00;95958.97;;;24.19;40.61
36828;BME280;22766;48.042;11.192;2022-07-09T12:03:28;95947.00;;;24.17;40.83
36828;BME280;22766;48.042;11.192;2022-07-09T12:05:57;95947.97;;;24.22;40.33
36828;BME280;22766;48.042;11.192;2022-07-09T12:08:30;95939.91;;;24.66;38.77
36828;BME280;22766;48.042;11.192;2022-07-09T12:10:59;95937.63;;;24.52;39.97
36828;BME280;22766;48.042;11.192;2022-07-09T12:13:26;95932.84;;;25.10;40.12
36828;BME280;22766;48.042;11.192;2022-07-09T12:15:53;95928.38;;;25.94;37.04
36828;BME280;22766;48.042;11.192;2022-07-09T12:18:20;95921.81;;;27.14;37.36
36828;BME280;22766;48.042;11.192;2022-07-09T12:20:47;95923.16;;;27.51;38.27
36828;BME280;22766;48.042;11.192;2022-07-09T12:23:14;95919.59;;;27.45;35.54
36828;BME280;22766;48.042;11.192;2022-07-09T12:25:42;95915.41;;;27.89;30.86
36828;BME280;22766;48.042;11.192;2022-07-09T12:28:08;95914.94;;;28.20;29.81
36828;BME280;22766;48.042;11.192;2022-07-09T12:30:35;95913.00;;;27.88;30.81
36828;BME280;22766;48.042;11.192;2022-07-09T12:33:02;95915.34;;;28.29;31.84
36828;BME280;22766;48.042;11.192;2022-07-09T12:35:28;95901.19;;;29.06;30.51
36828;BME280;22766;48.042;11.192;2022-07-09T12:37:55;95903.88;;;29.28;28.43
36828;BME280;22766;48.042;11.192;2022-07-09T12:40:25;95898.59;;;29.49;27.97
36828;BME280;22766;48.042;11.192;2022-07-09T12:42:51;95906.19;;;28.86;29.65
36828;BME280;22766;48.042;11.192;2022-07-09T12:45:18;95898.84;;;29.96;30.76
36828;BME280;22766;48.042;11.192;2022-07-09T12:47:45;95894.09;;;27.84;30.44
36828;BME280;22766;48.042;11.192;2022-07-09T12:50:11;95890.63;;;27.84;31.38
36828;BME280;22766;48.042;11.192;2022-07-09T12:52:38;95876.22;;;27.80;31.31